Time;durP1;ratioP1;P1;durP2;ratioP2;P2;SDS_P1;SDS_P2;PMS_P1;PMS_P2;Temp;Humidity;BMP_temperature;BMP_pressure;BME280_temperature;BME280_humidity;BME280_pressure;Samples;Min_cycle;Max_cycle;Signal;HPM_P1;HPM_P2
2024/01/23 00:03:37;;;;;;;0.80;0.80;;;8.10;99.90;;;;;;10473016;28;20262;-80
2024/01/23 00:08:41;;;;;;;0.60;0.60;;;8.20;99.90;;;;;;10458733;28;20659;-81
2024/01/23 00:13:45;;;;;;;0.70;0.70;;;8.20;99.90;;;;;;10461508;28;20193;-81
2024/01/23 00:18:47;;;;;;;0.60;0.60;;;8.30;99.90;;;;;;10464253;28;20204;-81
2024/01/23 00:23:52;;;;;;;0.80;0.80;;;8.30;99.90;;;;;;10467745;28;20253;-80
2024/01/23 00:28:55;;;;;;;0.90;0.90;;;8.30;99.90;;;;;;10442828;28;20205;-80
2024/01/23 00:33:58;;;;;;;0.73;0.73;;;8.30;99.90;;;;;;10477437;28;20244;-79
2024/01/23 00:39:01;;;;;;;0.70;0.70;;;8.30;99.90;;;;;;10475941;28;20197;-80
2024/01/23 00:44:04;;;;;;;0.70;0.70;;;8.20;99.90;;;;;;10464105;28;20241;-80
2024/01/23 00:49:06;;;;;;;0.60;0.60;;;8.10;99.90;;;;;;10458138;28;20606;-80
2024/01/23 00:54:10;;;;;;;0.87;0.87;;;8.00;99.90;;;;;;10458131;28;20217;-80
2024/01/23 00:59:13;;;;;;;0.60;0.60;;;8.00;99.90;;;;;;10468605;28;20255;-80
2024/01/23 01:04:15;;;;;;;0.50;0.50;;;8.10;99.90;;;;;;10453043;28;20217;-79
2024/01/23 01:09:19;;;;;;;0.70;0.70;;;8.10;99.90;;;;;;10456077;28;20209;-81
2024/01/23 01:14:25;;;;;;;2.33;2.33;;;8.10;99.90;;;;;;10459273;28;20236;-81
2024/01/23 01:19:30;;;;;;;3.20;3.20;;;8.00;99.90;;;;;;10456988;28;20255;-80
2024/01/23 01:24:35;;;;;;;3.23;3.23;;;7.90;99.90;;;;;;10458365;28;20709;-80
2024/01/23 01:29:38;;;;;;;3.70;3.70;;;7.70;99.90;;;;;;10457744;28;20275;-81
2024/01/23 01:34:40;;;;;;;3.80;3.80;;;7.60;99.90;;;;;;10457901;28;20263;-81
2024/01/23 01:39:44;;;;;;;4.00;4.00;;;7.50;99.90;;;;;;10456922;28;20197;-81
2024/01/23 01:44:46;;;;;;;3.90;3.90;;;7.40;99.90;;;;;;10457810;28;20591;-81
2024/01/23 01:49:49;;;;;;;3.60;3.60;;;7.30;99.90;;;;;;10459026;28;20197;-81
2024/01/23 01:54:53;;;;;;;4.50;4.50;;;7.20;99.90;;;;;;10455807;28;20217;-81
2024/01/23 01:59:56;;;;;;;4.10;4.10;;;7.20;99.90;;;;;;10436017;28;20518;-81
2024/01/23 02:04:58;;;;;;;3.60;3.60;;;7.20;99.90;;;;;;10456609;28;20221;-81
2024/01/23 02:10:02;;;;;;;3.60;3.60;;;7.10;99.90;;;;;;10455524;28;20259;-81
2024/01/23 02:15:05;;;;;;;3.53;3.53;;;7.10;99.90;;;;;;10454981;28;20213;-81
2024/01/23 02:20:09;;;;;;;3.40;3.40;;;7.00;99.90;;;;;;10441361;28;20709;-81
2024/01/23 02:25:13;;;;;;;3.40;3.40;;;7.00;99.90;;;;;;10439764;28;20236;-81
2024/01/23 02:30:15;;;;;;;3.30;3.30;;;7.00;99.90;;;;;;10448553;28;20211;-79
2024/01/23 02:35:18;;;;;;;3.40;3.40;;;7.00;99.90;;;;;;10454146;28;20229;-81
2024/01/23 02:40:22;;;;;;;3.00;3.00;;;7.00;99.90;;;;;;10457800;28;20205;-81
2024/01/23 02:45:25;;;;;;;3.20;3.20;;;7.00;99.90;;;;;;10442675;28;20642;-81
2024/01/23 02:50:29;;;;;;;3.00;3.00;;;7.00;99.90;;;;;;10441997;28;20197;-79
2024/01/23 02:55:33;;;;;;;3.17;3.17;;;7.00;99.90;;;;;;10464932;28;20217;-80
2024/01/23 03:00:38;;;;;;;2.93;2.93;;;6.90;99.90;;;;;;10460243;28;20217;-79
2024/01/23 03:05:41;;;;;;;3.17;3.17;;;7.00;99.90;;;;;;10439715;28;20236;-80
2024/01/23 03:10:47;;;;;;;2.50;2.50;;;7.00;99.90;;;;;;10461097;28;20204;-80
2024/01/23 03:15:52;;;;;;;2.70;2.70;;;7.00;99.90;;;;;;10459277;28;20221;-81
2024/01/23 03:20:55;;;;;;;2.40;2.40;;;7.10;99.90;;;;;;10457038;28;20193;-80
2024/01/23 03:25:59;;;;;;;2.07;2.07;;;7.10;99.90;;;;;;10439931;28;20339;-80
2024/01/23 03:31:01;;;;;;;2.30;2.30;;;7.20;99.90;;;;;;10458042;28;20212;-80
2024/01/23 03:36:04;;;;;;;1.90;1.90;;;7.30;99.90;;;;;;10438182;28;20236;-80
2024/01/23 03:41:07;;;;;;;2.20;2.20;;;7.30;99.90;;;;;;10450812;28;20671;-80
2024/01/23 03:46:10;;;;;;;1.83;1.83;;;7.40;99.90;;;;;;10441501;28;20224;-80
2024/01/23 03:51:12;;;;;;;1.70;1.70;;;7.50;99.90;;;;;;10457959;28;20197;-80
2024/01/23 03:56:17;;;;;;;1.70;1.70;;;7.50;99.90;;;;;;10441117;28;20228;-80
2024/01/23 04:01:19;;;;;;;1.40;1.40;;;7.50;99.90;;;;;;10446855;28;20260;-79
2024/01/23 04:06:21;;;;;;;2.27;2.27;;;7.60;99.90;;;;;;10454929;28;20214;-80
2024/01/23 04:11:25;;;;;;;2.13;2.13;;;7.70;99.90;;;;;;10453022;28;20202;-80
2024/01/23 04:16:28;;;;;;;1.40;1.40;;;7.70;99.90;;;;;;10452976;28;20630;-80
2024/01/23 04:21:30;;;;;;;1.43;1.43;;;7.70;99.90;;;;;;10454871;28;20202;-80
2024/01/23 04:26:34;;;;;;;1.63;1.63;;;7.80;99.90;;;;;;10449147;28;20222;-80
2024/01/23 04:31:36;;;;;;;1.40;1.40;;;7.80;99.90;;;;;;10454491;28;20201;-81
2024/01/23 04:36:38;;;;;;;1.27;1.27;;;7.90;99.90;;;;;;10454807;28;20209;-80
2024/01/23 04:41:42;;;;;;;1.00;1.00;;;7.80;99.90;;;;;;10454975;28;20243;-78
2024/01/23 04:46:45;;;;;;;1.10;1.10;;;7.80;99.90;;;;;;10454740;28;20217;-80
2024/01/23 04:51:47;;;;;;;1.50;1.50;;;7.80;99.90;;;;;;10456880;28;20197;-80
2024/01/23 04:56:51;;;;;;;1.10;1.10;;;7.80;99.90;;;;;;10458248;28;20221;-80
2024/01/23 05:01:53;;;;;;;1.17;1.17;;;7.80;99.90;;;;;;10435746;28;20223;-80
2024/01/23 05:06:56;;;;;;;0.83;0.83;;;7.80;99.90;;;;;;10452763;28;20221;-80
2024/01/23 05:11:59;;;;;;;1.13;1.13;;;7.80;99.90;;;;;;10454390;28;20220;-80
2024/01/23 05:17:02;;;;;;;1.10;1.10;;;7.80;99.90;;;;;;10457184;28;20216;-80
2024/01/23 05:22:04;;;;;;;1.10;1.10;;;7.80;99.90;;;;;;10456985;28;20568;-80
2024/01/23 05:27:08;;;;;;;1.10;1.10;;;7.70;99.90;;;;;;10492234;23;20317;-81
2024/01/23 05:32:10;;;;;;;1.37;1.37;;;7.70;99.90;;;;;;10504890;28;20197;-81
2024/01/23 05:37:13;;;;;;;1.40;1.40;;;7.70;99.90;;;;;;10480496;28;20323;-81
2024/01/23 05:42:17;;;;;;;1.40;1.40;;;7.60;99.90;;;;;;10450627;28;20224;-80
2024/01/23 05:47:19;;;;;;;1.43;1.43;;;7.60;99.90;;;;;;10459784;28;20883;-81
2024/01/23 05:52:21;;;;;;;1.20;1.20;;;7.60;99.90;;;;;;10481339;28;20267;-82
2024/01/23 05:57:25;;;;;;;1.20;1.20;;;7.50;99.90;;;;;;10478325;28;20218;-80
2024/01/23 06:02:27;;;;;;;1.03;1.03;;;7.50;99.90;;;;;;10487362;28;20215;-81
2024/01/23 06:07:29;;;;;;;1.00;1.00;;;7.50;99.90;;;;;;10495675;28;20281;-81
2024/01/23 06:12:33;;;;;;;1.13;1.13;;;7.40;99.90;;;;;;10479969;28;20634;-82
2024/01/23 06:17:35;;;;;;;0.80;0.80;;;7.40;99.90;;;;;;10473406;28;20232;-79
2024/01/23 06:22:38;;;;;;;0.70;0.70;;;7.40;99.90;;;;;;10498531;28;20224;-82
2024/01/23 06:27:42;;;;;;;0.77;0.77;;;7.40;99.90;;;;;;10499218;28;20331;-82
2024/01/23 06:32:44;;;;;;;0.90;0.90;;;7.30;99.90;;;;;;10490618;28;20263;-82
2024/01/23 06:37:46;;;;;;;0.80;0.80;;;7.30;99.90;;;;;;10481789;28;20269;-81
2024/01/23 06:42:50;;;;;;;0.80;0.80;;;7.30;99.90;;;;;;10492475;28;20733;-79
2024/01/23 06:47:52;;;;;;;0.60;0.60;;;7.40;99.90;;;;;;10480249;28;20287;-80
2024/01/23 06:52:55;;;;;;;0.70;0.70;;;7.40;99.90;;;;;;10472119;28;20204;-79
2024/01/23 06:57:58;;;;;;;0.80;0.80;;;7.30;99.90;;;;;;10489032;28;20204;-79
2024/01/23 07:03:01;;;;;;;0.80;0.80;;;7.30;99.90;;;;;;10495594;28;20193;-79
2024/01/23 07:08:04;;;;;;;0.80;0.80;;;7.20;99.90;;;;;;10476412;28;20228;-82
2024/01/23 07:13:07;;;;;;;0.60;0.60;;;7.10;99.90;;;;;;10482791;28;20185;-79
2024/01/23 07:18:10;;;;;;;0.80;0.80;;;7.00;99.90;;;;;;10498535;28;20224;-80
2024/01/23 07:23:12;;;;;;;0.90;0.90;;;7.00;99.90;;;;;;10476205;28;20222;-81
2024/01/23 07:28:16;;;;;;;0.37;0.37;;;6.90;99.90;;;;;;10470206;28;20224;-78
2024/01/23 07:33:18;;;;;;;0.70;0.70;;;6.80;99.90;;;;;;10476308;28;20227;-81
2024/01/23 07:38:20;;;;;;;0.90;0.90;;;6.80;99.90;;;;;;10489477;28;20217;-81
2024/01/23 07:43:26;;;;;;;1.07;1.07;;;6.70;99.90;;;;;;10486032;28;20224;-82
2024/01/23 07:48:29;;;;;;;0.80;0.80;;;6.70;99.90;;;;;;10512458;28;20229;-80
2024/01/23 07:53:32;;;;;;;0.60;0.60;;;6.70;99.90;;;;;;10489848;28;20666;-80
2024/01/23 07:58:36;;;;;;;0.80;0.80;;;6.70;99.90;;;;;;10449309;28;20721;-78
2024/01/23 08:03:38;;;;;;;0.73;0.73;;;6.70;99.90;;;;;;10481584;28;20209;-80
2024/01/23 08:08:43;;;;;;;0.70;0.70;;;6.70;99.90;;;;;;10479227;28;20229;-78
2024/01/23 08:13:47;;;;;;;0.70;0.70;;;6.80;99.90;;;;;;10471101;28;20212;-80
2024/01/23 08:18:50;;;;;;;0.80;0.80;;;6.90;99.90;;;;;;10482949;28;20208;-78
2024/01/23 08:23:52;;;;;;;0.60;0.60;;;6.90;99.90;;;;;;10470151;28;20227;-79
2024/01/23 08:28:56;;;;;;;0.80;0.80;;;6.90;99.90;;;;;;10480105;28;20246;-79
2024/01/23 08:33:59;;;;;;;0.50;0.50;;;6.90;99.90;;;;;;10462029;28;20223;-79
2024/01/23 08:39:01;;;;;;;0.80;0.80;;;6.90;99.90;;;;;;10457715;28;20732;-79
2024/01/23 08:44:05;;;;;;;0.80;0.80;;;6.90;99.90;;;;;;10482773;28;20685;-79
2024/01/23 08:49:07;;;;;;;0.17;0.17;;;6.90;99.90;;;;;;10465346;28;20797;-80
2024/01/23 08:54:11;;;;;;;0.40;0.40;;;7.00;99.90;;;;;;10464121;28;20204;-80
2024/01/23 08:59:15;;;;;;;0.60;0.60;;;7.00;99.90;;;;;;10468960;28;20192;-81
2024/01/23 09:04:17;;;;;;;0.60;0.60;;;7.10;99.90;;;;;;10464696;28;20201;-78
2024/01/23 09:09:20;;;;;;;0.50;0.50;;;7.20;99.90;;;;;;10438442;28;20224;-81
2024/01/23 09:14:23;;;;;;;0.50;0.50;;;7.20;99.90;;;;;;10438062;28;20201;-78
2024/01/23 09:19:26;;;;;;;0.60;0.60;;;7.20;99.90;;;;;;10457963;28;20578;-82
2024/01/23 09:24:28;;;;;;;0.50;0.50;;;7.20;99.90;;;;;;10456230;28;20718;-82
2024/01/23 09:29:32;;;;;;;0.50;0.50;;;7.30;99.90;;;;;;10454786;28;20247;-81
2024/01/23 09:34:36;;;;;;;0.50;0.50;;;7.40;99.90;;;;;;10463339;28;20236;-82
2024/01/23 09:39:39;;;;;;;0.50;0.50;;;7.60;99.90;;;;;;10465190;28;20246;-81
2024/01/23 09:44:43;;;;;;;0.50;0.50;;;7.80;99.90;;;;;;10449184;28;20224;-83
2024/01/23 09:49:45;;;;;;;0.70;0.70;;;7.90;99.90;;;;;;10468788;28;20231;-80
2024/01/23 09:54:47;;;;;;;0.40;0.40;;;7.90;99.90;;;;;;10467218;28;20213;-80
2024/01/23 09:59:52;;;;;;;0.50;0.50;;;8.00;99.90;;;;;;10466690;28;20279;-82
2024/01/23 10:04:55;;;;;;;0.40;0.40;;;8.00;99.90;;;;;;10443941;28;20271;-79
2024/01/23 10:09:59;;;;;;;0.40;0.40;;;8.00;99.90;;;;;;10458258;28;20299;-82
2024/01/23 10:15:03;;;;;;;0.30;0.30;;;8.00;99.90;;;;;;10450269;28;20571;-81
2024/01/23 10:20:08;;;;;;;0.30;0.30;;;8.00;99.90;;;;;;10463889;28;20204;-82
2024/01/23 10:25:13;;;;;;;0.60;0.60;;;8.10;99.90;;;;;;10462061;28;20252;-83
2024/01/23 10:30:18;;;;;;;0.40;0.40;;;8.20;99.90;;;;;;10460330;28;20284;-82
2024/01/23 10:35:20;;;;;;;0.50;0.50;;;8.30;99.90;;;;;;10454466;28;20229;-80
2024/01/23 10:40:23;;;;;;;0.47;0.47;;;8.40;99.90;;;;;;10468590;28;20200;-81
2024/01/23 10:45:27;;;;;;;0.50;0.50;;;8.60;99.90;;;;;;10455379;28;20213;-79
2024/01/23 10:50:30;;;;;;;0.50;0.50;;;8.80;99.90;;;;;;10438490;28;20221;-81
2024/01/23 10:55:33;;;;;;;0.40;0.40;;;8.80;99.90;;;;;;10468070;28;20217;-79
2024/01/23 11:00:38;;;;;;;0.50;0.50;;;8.80;99.90;;;;;;10458007;28;20209;-80
2024/01/23 11:05:48;;;;;;;0.40;0.40;;;8.90;99.90;;;;;;10455791;28;20218;-80
2024/01/23 11:10:57;;;;;;;0.40;0.40;;;8.90;99.90;;;;;;10451761;28;20657;-80
2024/01/23 11:16:06;;;;;;;0.40;0.40;;;8.90;99.90;;;;;;10450159;28;20275;-80
2024/01/23 11:21:15;;;;;;;0.50;0.50;;;9.10;99.90;;;;;;10442171;28;20209;-79
2024/01/23 11:26:20;;;;;;;0.30;0.30;;;9.10;99.90;;;;;;10440944;28;20286;-79
2024/01/23 11:31:25;;;;;;;0.40;0.40;;;9.20;99.90;;;;;;10458119;28;20209;-81
2024/01/23 11:36:28;;;;;;;0.40;0.40;;;9.30;99.90;;;;;;10457042;28;20279;-80
2024/01/23 11:41:31;;;;;;;0.40;0.40;;;9.30;99.90;;;;;;10442883;28;20236;-79
2024/01/23 11:46:35;;;;;;;0.37;0.37;;;9.20;99.90;;;;;;10441916;28;20228;-79
2024/01/23 11:51:39;;;;;;;0.50;0.50;;;9.10;99.90;;;;;;10448309;28;20202;-79
2024/01/23 11:56:42;;;;;;;0.40;0.40;;;9.10;99.90;;;;;;10433454;28;20275;-80
2024/01/23 12:01:47;;;;;;;0.40;0.40;;;9.00;99.90;;;;;;10423263;28;20205;-81
2024/01/23 12:06:49;;;;;;;0.40;0.40;;;9.00;99.90;;;;;;10441709;28;20221;-81
2024/01/23 12:11:52;;;;;;;0.40;0.40;;;9.10;99.90;;;;;;10459207;28;20581;-80
2024/01/23 12:17:04;;;;;;;0.30;0.30;;;9.10;99.90;;;;;;10455788;28;20213;-79
2024/01/23 12:22:06;;;;;;;0.30;0.30;;;9.00;99.90;;;;;;10445942;28;20202;-81
2024/01/23 12:27:09;;;;;;;0.40;0.40;;;8.90;99.90;;;;;;10452305;28;20221;-80
2024/01/23 12:32:13;;;;;;;0.40;0.40;;;8.80;99.90;;;;;;10452382;28;20251;-80
2024/01/23 12:37:17;;;;;;;0.40;0.40;;;8.80;99.90;;;;;;10450874;28;20210;-81
2024/01/23 12:42:19;;;;;;;0.30;0.30;;;8.80;99.90;;;;;;10462746;28;20204;-80
2024/01/23 12:47:23;;;;;;;0.30;0.30;;;8.90;99.90;;;;;;10445143;28;20679;-80
2024/01/23 12:52:25;;;;;;;0.40;0.40;;;8.90;99.90;;;;;;10449616;28;20205;-80
2024/01/23 12:57:27;;;;;;;0.40;0.40;;;8.90;99.80;;;;;;10454754;28;20217;-80
2024/01/23 13:02:31;;;;;;;0.50;0.50;;;8.90;99.90;;;;;;10458043;28;20198;-79
2024/01/23 13:07:34;;;;;;;0.30;0.30;;;8.90;99.90;;;;;;10456281;28;20682;-82
2024/01/23 13:12:37;;;;;;;0.30;0.30;;;8.90;99.90;;;;;;10459338;28;20192;-81
2024/01/23 13:17:41;;;;;;;0.20;0.20;;;9.10;99.90;;;;;;10458761;28;20645;-82
2024/01/23 13:22:45;;;;;;;0.10;0.10;;;9.10;99.80;;;;;;10462998;28;20702;-82
2024/01/23 13:27:49;;;;;;;0.20;0.20;;;9.20;99.70;;;;;;10463124;28;20278;-81
2024/01/23 13:32:55;;;;;;;0.30;0.30;;;9.20;99.90;;;;;;10448994;28;20475;-83
2024/01/23 13:37:57;;;;;;;0.37;0.37;;;9.20;99.90;;;;;;10429478;28;20244;-83
2024/01/23 13:43:00;;;;;;;0.30;0.30;;;9.30;99.90;;;;;;10411138;28;20260;-82
2024/01/23 13:48:04;;;;;;;0.27;0.27;;;9.30;99.90;;;;;;10448105;28;20251;-81
2024/01/23 13:53:06;;;;;;;0.27;0.27;;;9.30;99.90;;;;;;10429104;28;20618;-82
2024/01/23 13:58:09;;;;;;;0.10;0.10;;;9.30;99.90;;;;;;10427292;28;20325;-82
2024/01/23 14:03:13;;;;;;;0.30;0.30;;;9.30;99.90;;;;;;10430141;28;20229;-82
2024/01/23 14:08:16;;;;;;;0.30;0.30;;;9.30;99.90;;;;;;10450552;28;20226;-81
2024/01/23 14:13:18;;;;;;;0.40;0.40;;;9.30;99.90;;;;;;10420766;28;20328;-81
2024/01/23 14:18:22;;;;;;;0.20;0.20;;;9.30;99.90;;;;;;10442190;28;20214;-80
2024/01/23 14:23:24;;;;;;;0.30;0.30;;;9.30;99.90;;;;;;10423166;28;20208;-83
2024/01/23 14:28:26;;;;;;;0.30;0.30;;;9.30;99.80;;;;;;10440801;28;20225;-80
2024/01/23 14:33:30;;;;;;;0.23;0.23;;;9.30;99.90;;;;;;10453366;28;20578;-82
2024/01/23 14:38:32;;;;;;;0.40;0.40;;;9.30;99.90;;;;;;10447462;28;20226;-80
2024/01/23 14:43:35;;;;;;;0.30;0.30;;;9.30;99.90;;;;;;10451435;28;20502;-81
2024/01/23 14:48:40;;;;;;;0.30;0.30;;;9.30;99.90;;;;;;10439984;28;20222;-80
2024/01/23 14:53:42;;;;;;;0.30;0.30;;;9.30;99.90;;;;;;10450712;28;20201;-82
2024/01/23 14:58:44;;;;;;;0.20;0.20;;;9.30;99.90;;;;;;10448953;28;20256;-83
2024/01/23 15:03:48;;;;;;;0.23;0.23;;;9.30;99.90;;;;;;10448775;28;20725;-81
2024/01/23 15:08:50;;;;;;;0.30;0.30;;;9.30;99.90;;;;;;10443662;28;20210;-81
2024/01/23 15:13:53;;;;;;;0.40;0.40;;;9.30;99.90;;;;;;10446120;28;20205;-82
2024/01/23 15:18:58;;;;;;;0.20;0.20;;;9.20;99.90;;;;;;10434592;28;20590;-84
2024/01/23 15:24:02;;;;;;;0.40;0.40;;;9.20;99.90;;;;;;10425291;28;20213;-81
2024/01/23 15:29:04;;;;;;;0.30;0.30;;;9.10;99.90;;;;;;10438308;28;20283;-82
2024/01/23 15:34:08;;;;;;;0.50;0.50;;;9.20;99.90;;;;;;10462075;28;20201;-81
2024/01/23 15:39:11;;;;;;;0.20;0.20;;;9.10;99.90;;;;;;10460131;28;20696;-84
2024/01/23 15:44:13;;;;;;;0.40;0.40;;;9.10;99.90;;;;;;10460737;28;20193;-82
2024/01/23 15:49:18;;;;;;;0.40;0.40;;;9.10;99.90;;;;;;10462390;28;20237;-82
2024/01/23 15:54:21;;;;;;;0.27;0.27;;;9.10;99.90;;;;;;10462169;28;20202;-82
2024/01/23 15:59:23;;;;;;;0.40;0.40;;;9.10;99.90;;;;;;10463300;28;20208;-82
2024/01/23 16:04:27;;;;;;;0.40;0.40;;;9.10;99.90;;;;;;10450877;28;20220;-81
2024/01/23 16:09:30;;;;;;;0.50;0.50;;;9.10;99.90;;;;;;10469741;28;20729;-83
2024/01/23 16:14:32;;;;;;;0.40;0.40;;;9.10;99.90;;;;;;10462836;28;20211;-82
2024/01/23 16:19:36;;;;;;;0.50;0.50;;;9.00;99.90;;;;;;10463477;28;20201;-82
2024/01/23 16:24:40;;;;;;;0.40;0.40;;;9.00;99.90;;;;;;10450713;28;20229;-80
2024/01/23 16:29:42;;;;;;;0.30;0.30;;;9.00;99.90;;;;;;10467511;28;20212;-83
2024/01/23 16:34:46;;;;;;;0.50;0.50;;;9.00;99.90;;;;;;10462697;28;20220;-80
2024/01/23 16:39:49;;;;;;;0.30;0.30;;;9.00;99.90;;;;;;10462663;28;20198;-83
2024/01/23 16:44:51;;;;;;;0.40;0.40;;;9.00;99.90;;;;;;10463108;28;20760;-81
2024/01/23 16:49:55;;;;;;;0.13;0.13;;;9.00;99.90;;;;;;10466272;28;20687;-79
2024/01/23 16:54:58;;;;;;;0.40;0.40;;;9.00;99.90;;;;;;10446017;28;20247;-82
2024/01/23 17:00:00;;;;;;;0.47;0.47;;;8.90;99.90;;;;;;10467602;28;20255;-82
2024/01/23 17:05:04;;;;;;;0.40;0.40;;;8.90;99.90;;;;;;10470204;28;20213;-81
2024/01/23 17:10:07;;;;;;;0.40;0.40;;;8.90;99.90;;;;;;10474357;28;20697;-81
2024/01/23 17:15:10;;;;;;;0.37;0.37;;;8.90;99.90;;;;;;10477689;28;20223;-84
2024/01/23 17:20:14;;;;;;;0.40;0.40;;;8.90;99.90;;;;;;10479090;28;20197;-83
2024/01/23 17:25:17;;;;;;;0.50;0.50;;;8.90;99.90;;;;;;10476689;22;20720;-79
2024/01/23 17:30:19;;;;;;;0.50;0.50;;;8.90;99.90;;;;;;10459807;28;20707;-79
2024/01/23 17:35:23;;;;;;;0.17;0.17;;;9.00;99.90;;;;;;10466540;28;20238;-80
2024/01/23 17:40:31;;;;;;;0.50;0.50;;;9.00;99.90;;;;;;10497133;28;20192;-79
2024/01/23 17:45:35;;;;;;;0.50;0.50;;;8.90;99.90;;;;;;10478734;28;20234;-79
2024/01/23 17:50:39;;;;;;;0.50;0.50;;;8.90;99.90;;;;;;10495141;28;20566;-80
2024/01/23 17:55:41;;;;;;;0.60;0.60;;;9.00;99.90;;;;;;10482982;28;20220;-79
2024/01/23 18:00:44;;;;;;;0.60;0.60;;;8.90;99.90;;;;;;10499185;28;20188;-79
2024/01/23 18:05:48;;;;;;;0.77;0.77;;;8.80;99.90;;;;;;10484977;28;20223;-78
2024/01/23 18:10:50;;;;;;;0.60;0.60;;;8.70;99.90;;;;;;10501197;28;20224;-79
2024/01/23 18:15:53;;;;;;;0.90;0.90;;;8.70;99.90;;;;;;10500226;28;20212;-79
2024/01/23 18:20:57;;;;;;;1.23;1.23;;;8.60;99.90;;;;;;10502345;28;20666;-79
2024/01/23 18:25:59;;;;;;;1.10;1.10;;;8.50;99.90;;;;;;10498072;28;20277;-80
2024/01/23 18:31:02;;;;;;;2.30;2.30;;;8.30;99.90;;;;;;10500769;28;20629;-80
2024/01/23 18:36:07;;;;;;;2.67;2.67;;;8.20;99.90;;;;;;10504771;28;20343;-79
2024/01/23 18:41:10;;;;;;;2.33;2.33;;;8.00;99.90;;;;;;10485335;28;20318;-79
2024/01/23 18:46:12;;;;;;;2.20;2.20;;;7.90;99.90;;;;;;10502175;28;20212;-79
2024/01/23 18:51:17;;;;;;;2.30;2.30;;;7.80;99.90;;;;;;10502471;28;20216;-79
2024/01/23 18:56:19;;;;;;;1.07;1.07;;;7.70;99.90;;;;;;10478955;28;20240;-78
2024/01/23 19:01:22;;;;;;;2.70;2.70;;;7.70;99.90;;;;;;10494755;28;20258;-79
2024/01/23 19:06:26;;;;;;;2.90;2.90;;;7.60;99.90;;;;;;10492865;28;20224;-79
2024/01/23 19:11:28;;;;;;;2.60;2.60;;;7.60;99.90;;;;;;10496139;28;20224;-79
2024/01/23 19:16:30;;;;;;;3.00;3.00;;;7.60;99.90;;;;;;10500070;28;20215;-79
2024/01/23 19:21:34;;;;;;;2.97;2.97;;;7.60;99.90;;;;;;10498309;28;20196;-79
2024/01/23 19:26:37;;;;;;;2.97;2.97;;;7.60;99.90;;;;;;10496846;28;20278;-78
2024/01/23 19:31:39;;;;;;;3.23;3.23;;;7.60;99.90;;;;;;10475783;28;20616;-79
2024/01/23 19:36:43;;;;;;;2.67;2.67;;;7.60;99.90;;;;;;10495772;28;20220;-79
2024/01/23 19:41:45;;;;;;;2.80;2.80;;;7.60;99.90;;;;;;10484640;28;20293;-79
2024/01/23 19:46:48;;;;;;;3.20;3.20;;;7.60;99.90;;;;;;10491223;28;20593;-80
2024/01/23 19:51:52;;;;;;;2.73;2.73;;;7.70;99.90;;;;;;10484997;28;20254;-78
2024/01/23 19:56:54;;;;;;;3.03;3.03;;;7.60;99.90;;;;;;10473511;28;20213;-79
2024/01/23 20:01:57;;;;;;;2.30;2.30;;;7.60;99.90;;;;;;10492173;28;20193;-79
2024/01/23 20:07:01;;;;;;;3.20;3.20;;;7.60;99.90;;;;;;10488914;28;20298;-79
2024/01/23 20:12:04;;;;;;;3.33;3.33;;;7.60;99.90;;;;;;10494246;28;20223;-81
2024/01/23 20:17:07;;;;;;;3.50;3.50;;;7.60;99.90;;;;;;10490451;28;20212;-80
2024/01/23 20:22:11;;;;;;;3.83;3.83;;;7.60;99.90;;;;;;10490561;28;20193;-78
2024/01/23 20:27:13;;;;;;;3.60;3.60;;;7.60;99.90;;;;;;10490810;28;20266;-79
2024/01/23 20:32:16;;;;;;;2.93;2.93;;;7.60;99.90;;;;;;10490041;28;20216;-79
2024/01/23 20:37:20;;;;;;;3.27;3.27;;;7.60;99.90;;;;;;10492474;28;20220;-79
2024/01/23 20:42:22;;;;;;;3.80;3.80;;;7.50;99.90;;;;;;10493871;28;20265;-79
2024/01/23 20:47:25;;;;;;;3.30;3.30;;;7.50;99.90;;;;;;10494474;28;20216;-80
2024/01/23 20:52:29;;;;;;;2.37;2.37;;;7.50;99.90;;;;;;10493229;28;20217;-79
2024/01/23 20:57:31;;;;;;;2.20;2.20;;;7.50;99.90;;;;;;10456704;28;20223;-79
2024/01/23 21:02:34;;;;;;;2.20;2.20;;;7.50;99.90;;;;;;10489996;28;20658;-79
2024/01/23 21:07:37;;;;;;;2.00;2.00;;;7.50;99.90;;;;;;10472468;28;20248;-79
2024/01/23 21:12:40;;;;;;;1.40;1.40;;;7.50;99.90;;;;;;10466004;28;20220;-78
2024/01/23 21:17:42;;;;;;;1.30;1.30;;;7.60;99.90;;;;;;10492329;28;20239;-79
2024/01/23 21:22:46;;;;;;;1.70;1.70;;;7.70;99.90;;;;;;10475824;28;20612;-80
2024/01/23 21:27:48;;;;;;;1.67;1.67;;;7.80;99.90;;;;;;10498148;28;20224;-79
2024/01/23 21:32:52;;;;;;;0.70;0.70;;;7.90;99.90;;;;;;10480778;28;20220;-79
2024/01/23 21:37:58;;;;;;;0.90;0.90;;;8.00;99.90;;;;;;10500901;28;20220;-78
2024/01/23 21:43:03;;;;;;;0.60;0.60;;;8.10;99.90;;;;;;10486407;28;20215;-78
2024/01/23 21:48:06;;;;;;;0.60;0.60;;;8.20;99.90;;;;;;10506830;28;20654;-80
2024/01/23 21:53:10;;;;;;;0.50;0.50;;;8.30;99.90;;;;;;10504153;28;20470;-80
2024/01/23 21:58:12;;;;;;;0.47;0.47;;;8.40;99.90;;;;;;10502593;28;20220;-78
2024/01/23 22:03:15;;;;;;;0.57;0.57;;;8.40;99.90;;;;;;10483322;28;20192;-79
2024/01/23 22:08:19;;;;;;;0.77;0.77;;;8.50;99.90;;;;;;10482685;28;20235;-80
2024/01/23 22:13:24;;;;;;;0.60;0.60;;;8.50;99.90;;;;;;10505282;28;20223;-79
2024/01/23 22:18:27;;;;;;;0.60;0.60;;;8.40;99.90;;;;;;10489022;28;20250;-79
2024/01/23 22:23:32;;;;;;;0.60;0.60;;;8.40;99.90;;;;;;10514562;28;20181;-79
2024/01/23 22:28:35;;;;;;;0.47;0.47;;;8.40;99.90;;;;;;10487059;28;20235;-79
2024/01/23 22:33:37;;;;;;;0.60;0.60;;;8.40;99.90;;;;;;10503749;28;20571;-79
2024/01/23 22:38:42;;;;;;;0.50;0.50;;;8.40;99.90;;;;;;10499475;28;20211;-79
2024/01/23 22:43:53;;;;;;;0.50;0.50;;;8.50;99.90;;;;;;10502170;28;20223;-78
2024/01/23 22:48:56;;;;;;;0.63;0.63;;;8.60;99.90;;;;;;10483603;28;20212;-80
2024/01/23 22:54:00;;;;;;;0.60;0.60;;;8.70;99.90;;;;;;10501127;28;20678;-78
2024/01/23 22:59:02;;;;;;;0.50;0.50;;;8.80;99.90;;;;;;10481263;28;20227;-79
2024/01/23 23:04:05;;;;;;;0.40;0.40;;;8.90;99.90;;;;;;10482139;28;20188;-78
2024/01/23 23:09:09;;;;;;;0.50;0.50;;;8.90;99.90;;;;;;10495146;28;20220;-78
2024/01/23 23:14:15;;;;;;;0.50;0.50;;;8.90;99.90;;;;;;10492869;28;20189;-79
2024/01/23 23:19:17;;;;;;;0.57;0.57;;;8.90;99.90;;;;;;10490798;28;20220;-77
2024/01/23 23:24:21;;;;;;;0.50;0.50;;;8.90;99.90;;;;;;10473336;28;20200;-79
2024/01/23 23:29:23;;;;;;;0.40;0.40;;;9.00;99.90;;;;;;10467868;28;20238;-78
2024/01/23 23:34:28;;;;;;;0.50;0.50;;;9.10;99.90;;;;;;10479456;28;20196;-78
2024/01/23 23:39:35;;;;;;;0.50;0.50;;;9.10;99.90;;;;;;10507497;22;20227;-82
2024/01/23 23:44:37;;;;;;;0.50;0.50;;;9.20;99.90;;;;;;10551539;28;20215;-82
2024/01/23 23:49:39;;;;;;;0.50;0.50;;;9.30;99.90;;;;;;10534498;28;20202;-82
2024/01/23 23:54:43;;;;;;;0.60;0.60;;;9.40;99.90;;;;;;10511346;28;20214;-82
2024/01/23 23:59:46;;;;;;;0.53;0.53;;;9.40;99.90;;;;;;10496080;28;20612;-83
